createdAt,value
2023-10-07T00:02:18.212Z,19.33
2023-10-07T00:04:47.459Z,9.40
2023-10-07T00:07:16.395Z,8.30
2023-10-07T00:09:44.750Z,10.83
2023-10-07T00:12:17.531Z,9.63
2023-10-07T00:14:45.188Z,11.07
2023-10-07T00:17:19.740Z,8.37
2023-10-07T00:19:47.693Z,7.63
2023-10-07T00:22:16.257Z,10.43
2023-10-07T00:24:47.313Z,17.83
2023-10-07T00:27:27.912Z,12.80
2023-10-07T00:30:00.420Z,9.80
2023-10-07T00:32:29.827Z,11.80
2023-10-07T00:35:00.508Z,10.70
2023-10-07T00:37:27.802Z,11.57
2023-10-07T00:39:55.007Z,10.70
2023-10-07T00:42:23.878Z,9.97
2023-10-07T00:44:54.299Z,13.43
2023-10-07T00:47:23.006Z,9.23
2023-10-07T00:49:50.680Z,6.97
2023-10-07T00:52:30.554Z,16.80
2023-10-07T00:55:01.690Z,10.03
2023-10-07T00:57:34.824Z,10.43
2023-10-07T01:00:23.483Z,12.10
2023-10-07T01:02:55.162Z,10.63
2023-10-07T01:05:28.433Z,15.70
2023-10-07T01:07:56.668Z,8.87
2023-10-07T01:10:28.778Z,14.00
2023-10-07T01:13:02.461Z,21.77
2023-10-07T01:15:31.192Z,13.83
2023-10-07T01:18:05.228Z,9.53
2023-10-07T01:20:36.862Z,17.27
2023-10-07T01:23:08.656Z,16.63
2023-10-07T01:25:45.306Z,14.90
2023-10-07T01:28:16.376Z,14.13
2023-10-07T01:31:08.729Z,7.33
2023-10-07T01:33:47.580Z,17.53
2023-10-07T01:36:25.128Z,9.67
2023-10-07T01:38:53.838Z,13.43
2023-10-07T01:41:29.540Z,13.27
2023-10-07T01:44:06.090Z,14.30
2023-10-07T01:46:36.000Z,8.83
2023-10-07T01:49:18.169Z,12.03
2023-10-07T01:51:46.104Z,13.10
2023-10-07T01:54:13.298Z,13.73
2023-10-07T01:56:40.772Z,19.43
2023-10-07T01:59:15.915Z,20.47
2023-10-07T02:01:43.562Z,15.60
2023-10-07T02:04:25.749Z,13.87
2023-10-07T02:06:53.265Z,20.93
2023-10-07T02:09:28.713Z,17.80
2023-10-07T02:11:58.328Z,16.33
2023-10-07T02:14:26.947Z,12.10
2023-10-07T02:16:54.570Z,14.93
2023-10-07T02:19:31.388Z,11.83
2023-10-07T02:22:22.046Z,22.30
2023-10-07T02:24:56.966Z,11.63
2023-10-07T02:27:26.767Z,15.03
2023-10-07T02:29:57.846Z,17.70
2023-10-07T02:32:24.817Z,17.87
2023-10-07T02:34:56.149Z,14.67
2023-10-07T02:37:26.798Z,21.20
2023-10-07T02:40:12.918Z,16.03
2023-10-07T02:42:39.778Z,14.67
2023-10-07T02:45:27.568Z,17.90
2023-10-07T02:47:56.031Z,15.27
2023-10-07T02:50:26.977Z,20.07
2023-10-07T02:52:55.902Z,22.57
2023-10-07T02:55:22.783Z,18.60
2023-10-07T02:57:56.848Z,22.10
2023-10-07T03:00:39.857Z,18.13
2023-10-07T03:03:13.061Z,23.40
2023-10-07T03:05:58.725Z,19.40
2023-10-07T03:08:41.655Z,20.30
2023-10-07T03:11:24.835Z,29.80
2023-10-07T03:13:58.704Z,19.37
2023-10-07T03:16:26.314Z,17.13
2023-10-07T03:18:58.145Z,18.13
2023-10-07T03:21:44.948Z,18.60
2023-10-07T03:24:13.636Z,19.47
2023-10-07T03:26:46.927Z,24.97
2023-10-07T03:29:30.452Z,16.13
2023-10-07T03:32:00.991Z,22.70
2023-10-07T03:34:28.071Z,27.20
2023-10-07T03:37:09.906Z,18.10
2023-10-07T03:39:55.281Z,36.53
2023-10-07T03:42:22.336Z,27.60
2023-10-07T03:44:50.580Z,21.93
2023-10-07T03:47:17.626Z,18.30
2023-10-07T03:49:54.163Z,23.83
2023-10-07T03:52:22.086Z,22.10
2023-10-07T03:54:49.695Z,24.57
2023-10-07T03:57:20.070Z,26.83
2023-10-07T03:59:47.871Z,28.30
2023-10-07T04:02:35.094Z,34.10
2023-10-07T04:05:11.918Z,35.27
2023-10-07T04:07:39.918Z,22.90
2023-10-07T04:10:17.228Z,25.13
2023-10-07T04:12:47.824Z,26.33
2023-10-07T04:15:18.286Z,24.67
2023-10-07T04:17:46.491Z,26.90
2023-10-07T04:20:19.983Z,31.13
2023-10-07T04:22:59.603Z,26.73
2023-10-07T04:25:27.021Z,36.00
2023-10-07T04:27:54.827Z,38.57
2023-10-07T04:30:26.729Z,32.57
2023-10-07T04:33:01.927Z,32.43
2023-10-07T04:35:32.131Z,23.43
2023-10-07T04:38:10.641Z,26.40
2023-10-07T04:40:56.470Z,46.13
2023-10-07T04:43:38.870Z,45.30
2023-10-07T04:46:22.216Z,30.83
2023-10-07T04:48:56.531Z,23.70
2023-10-07T04:51:33.073Z,28.00
2023-10-07T04:54:03.411Z,36.07
2023-10-07T04:56:34.164Z,35.67
2023-10-07T04:59:07.770Z,26.33
2023-10-07T05:01:35.487Z,27.83
2023-10-07T05:04:10.968Z,24.17
2023-10-07T05:06:39.688Z,26.10
2023-10-07T05:09:10.805Z,33.50
2023-10-07T05:11:42.294Z,22.50
2023-10-07T05:14:10.367Z,28.07
2023-10-07T05:16:38.674Z,28.13
2023-10-07T05:19:10.701Z,25.93
2023-10-07T05:21:40.804Z,24.40
2023-10-07T05:24:11.549Z,25.87
2023-10-07T05:26:42.098Z,26.10
2023-10-07T05:29:14.223Z,25.40
2023-10-07T05:31:42.330Z,24.87
2023-10-07T05:34:09.925Z,32.00
2023-10-07T05:36:39.415Z,22.03
2023-10-07T05:39:09.206Z,21.10
2023-10-07T05:41:40.738Z,29.43
2023-10-07T05:44:08.911Z,30.23
2023-10-07T05:46:36.306Z,33.20
2023-10-07T05:49:03.811Z,24.63
2023-10-07T05:51:32.899Z,26.70
2023-10-07T05:53:59.860Z,26.87
2023-10-07T05:56:26.610Z,25.13
2023-10-07T05:58:53.599Z,27.20
2023-10-07T06:01:20.507Z,22.97
2023-10-07T06:03:47.856Z,25.43
2023-10-07T06:06:16.028Z,21.57
2023-10-07T06:08:43.337Z,22.57
2023-10-07T06:11:12.100Z,29.50
2023-10-07T06:13:41.792Z,26.90
2023-10-07T06:16:09.349Z,27.97
2023-10-07T06:18:36.430Z,37.33
2023-10-07T06:21:19.183Z,26.73
2023-10-07T06:23:46.367Z,31.83
2023-10-07T06:26:14.404Z,33.83
2023-10-07T06:28:45.686Z,32.33
2023-10-07T06:31:23.516Z,22.57
2023-10-07T06:34:01.081Z,25.67
2023-10-07T06:36:31.608Z,24.93
2023-10-07T06:39:00.296Z,25.90
2023-10-07T06:41:30.481Z,23.90
2023-10-07T06:44:00.898Z,22.37
2023-10-07T06:46:46.459Z,24.60
2023-10-07T06:49:20.878Z,20.20
2023-10-07T06:51:55.783Z,31.73
2023-10-07T06:54:27.717Z,25.90
2023-10-07T06:56:57.476Z,21.90
2023-10-07T06:59:29.779Z,23.60
2023-10-07T07:01:58.923Z,16.57
2023-10-07T07:04:26.972Z,28.47
2023-10-07T07:07:12.083Z,16.70
2023-10-07T07:09:47.597Z,27.53
2023-10-07T07:12:18.132Z,14.63
2023-10-07T07:14:53.287Z,22.90
2023-10-07T07:17:31.448Z,19.83
2023-10-07T07:20:13.658Z,16.50
2023-10-07T07:22:45.710Z,20.13
2023-10-07T07:25:38.451Z,30.40
2023-10-07T07:28:06.761Z,22.47
2023-10-07T07:30:36.404Z,26.10
2023-10-07T07:33:14.989Z,24.00
2023-10-07T07:35:46.447Z,27.13
2023-10-07T07:38:34.131Z,18.63
2023-10-07T07:41:08.270Z,18.10
2023-10-07T07:43:40.030Z,15.80
2023-10-07T07:46:27.655Z,17.83
2023-10-07T07:48:55.264Z,22.13
2023-10-07T07:51:26.126Z,24.03
2023-10-07T07:53:53.453Z,16.20
2023-10-07T07:56:21.348Z,15.27
2023-10-07T07:58:51.242Z,13.00
2023-10-07T08:01:30.082Z,21.07
2023-10-07T08:04:00.710Z,16.90
2023-10-07T08:06:27.873Z,13.53
2023-10-07T08:08:55.850Z,27.10
2023-10-07T08:11:23.376Z,15.30
2023-10-07T08:13:50.308Z,18.73
2023-10-07T08:16:19.845Z,23.10
2023-10-07T08:18:51.853Z,14.70
2023-10-07T08:21:18.752Z,15.23
2023-10-07T08:23:47.328Z,14.50
2023-10-07T08:26:21.626Z,21.80
2023-10-07T08:29:00.855Z,34.87
2023-10-07T08:31:44.469Z,16.47
2023-10-07T08:34:13.323Z,17.57
2023-10-07T08:36:44.641Z,13.30
2023-10-07T08:39:12.509Z,13.63
2023-10-07T08:41:48.732Z,16.40
2023-10-07T08:44:16.935Z,11.27
2023-10-07T08:46:54.479Z,12.10
2023-10-07T08:49:26.867Z,13.80
2023-10-07T08:51:58.390Z,9.80
2023-10-07T08:54:32.996Z,15.27
2023-10-07T08:57:10.859Z,13.60
2023-10-07T08:59:39.881Z,11.57
2023-10-07T09:02:14.377Z,15.97
2023-10-07T09:04:42.205Z,17.27
2023-10-07T09:07:12.832Z,19.63
2023-10-07T09:09:40.721Z,18.50
2023-10-07T09:12:16.021Z,14.87
2023-10-07T09:14:53.524Z,13.33
2023-10-07T09:17:25.076Z,14.67
2023-10-07T09:20:02.653Z,15.90
2023-10-07T09:22:37.657Z,16.67
2023-10-07T09:25:24.840Z,18.23
2023-10-07T09:28:02.480Z,11.77
2023-10-07T09:30:40.253Z,15.80
2023-10-07T09:33:16.204Z,9.07
2023-10-07T09:35:48.455Z,10.40
2023-10-07T09:38:34.854Z,13.73
2023-10-07T09:41:15.345Z,9.40
2023-10-07T09:43:52.070Z,11.37
2023-10-07T09:49:05.464Z,6.87
2023-10-07T09:51:48.680Z,14.30
2023-10-07T09:54:48.627Z,14.80
2023-10-07T09:57:50.849Z,7.33
2023-10-07T10:00:32.677Z,10.87
2023-10-07T10:03:15.510Z,13.77
2023-10-07T10:06:10.903Z,11.97
2023-10-07T10:09:34.036Z,9.67
2023-10-07T10:12:20.113Z,7.53
2023-10-07T10:15:15.798Z,8.20
2023-10-07T10:17:50.490Z,8.10
2023-10-07T10:20:19.899Z,7.53
2023-10-07T10:22:54.382Z,10.70
2023-10-07T10:25:37.475Z,7.30
2023-10-07T10:28:08.144Z,12.33
2023-10-07T10:30:45.341Z,7.33
2023-10-07T10:33:21.556Z,10.27
2023-10-07T10:35:59.316Z,7.53
2023-10-07T10:38:38.504Z,14.97
2023-10-07T10:41:06.285Z,8.80
2023-10-07T10:43:33.583Z,12.40
2023-10-07T10:46:07.835Z,10.13
2023-10-07T10:48:36.014Z,6.77
2023-10-07T10:51:08.485Z,9.63
2023-10-07T10:53:42.290Z,7.40
2023-10-07T10:56:10.170Z,9.53
2023-10-07T10:58:38.221Z,7.53
2023-10-07T11:01:09.007Z,12.40
2023-10-07T11:03:38.948Z,10.40
2023-10-07T11:06:07.426Z,8.20
2023-10-07T11:08:34.769Z,12.40
2023-10-07T11:11:02.982Z,9.20
2023-10-07T11:13:33.407Z,8.10
2023-10-07T11:16:12.738Z,7.80
2023-10-07T11:18:46.585Z,13.10
2023-10-07T11:21:17.083Z,6.77
2023-10-07T11:23:47.260Z,9.87
2023-10-07T11:26:15.345Z,10.47
2023-10-07T11:28:43.812Z,5.90
2023-10-07T11:31:12.099Z,11.00
2023-10-07T11:33:40.375Z,8.43
2023-10-07T11:36:08.747Z,8.83
2023-10-07T11:38:35.628Z,8.10
2023-10-07T11:41:05.762Z,9.83
2023-10-07T11:43:45.397Z,9.97
2023-10-07T11:46:14.763Z,13.03
2023-10-07T11:48:45.501Z,10.93
2023-10-07T11:51:13.175Z,11.07
2023-10-07T11:53:43.016Z,9.93
2023-10-07T11:56:13.094Z,6.57
2023-10-07T11:58:40.609Z,7.03
2023-10-07T12:01:09.149Z,12.77
2023-10-07T12:03:36.170Z,9.57
2023-10-07T12:06:06.646Z,8.60
2023-10-07T12:08:36.582Z,7.40
2023-10-07T12:11:05.618Z,11.90
2023-10-07T12:13:33.758Z,6.40
2023-10-07T12:16:04.863Z,10.20
2023-10-07T12:18:32.677Z,7.00
2023-10-07T12:21:02.950Z,10.37
2023-10-07T12:23:31.938Z,7.90
2023-10-07T12:25:58.819Z,8.93
2023-10-07T12:28:25.798Z,9.10
2023-10-07T12:30:53.360Z,12.53
2023-10-07T12:33:35.088Z,8.27
2023-10-07T12:36:11.516Z,15.63
2023-10-07T12:38:38.872Z,8.70
2023-10-07T12:41:08.316Z,11.63
2023-10-07T12:43:41.258Z,10.60
2023-10-07T12:46:12.292Z,9.27
2023-10-07T12:48:42.081Z,10.23
2023-10-07T12:51:09.841Z,10.10
2023-10-07T12:53:37.169Z,11.83
2023-10-07T12:56:20.332Z,7.90
2023-10-07T12:58:47.687Z,12.10
2023-10-07T13:01:15.410Z,7.63
2023-10-07T13:03:46.381Z,12.80
2023-10-07T13:06:17.127Z,7.03
2023-10-07T13:08:44.939Z,9.80
2023-10-07T13:11:15.569Z,11.23
2023-10-07T13:13:46.736Z,8.83
2023-10-07T13:16:15.075Z,9.20
2023-10-07T13:18:43.099Z,9.83
2023-10-07T13:21:19.992Z,12.67
2023-10-07T13:23:47.483Z,9.43
2023-10-07T13:26:16.066Z,10.67
2023-10-07T13:28:43.195Z,8.27
2023-10-07T13:31:11.374Z,13.23
2023-10-07T13:33:38.865Z,12.17
2023-10-07T13:36:09.695Z,11.83
2023-10-07T13:38:36.637Z,11.67
2023-10-07T13:41:07.329Z,11.10
2023-10-07T13:43:34.405Z,13.90
2023-10-07T13:46:10.186Z,11.07
2023-10-07T13:48:38.047Z,8.17
2023-10-07T13:51:06.817Z,13.33
2023-10-07T13:53:53.353Z,7.73
2023-10-07T13:56:46.545Z,13.63
2023-10-07T13:59:13.754Z,14.20
2023-10-07T14:01:41.239Z,14.00
2023-10-07T14:04:08.245Z,8.73
2023-10-07T14:06:37.403Z,8.37
2023-10-07T14:09:10.046Z,12.20
2023-10-07T14:11:38.136Z,7.93
2023-10-07T14:14:07.352Z,11.63
2023-10-07T14:16:35.582Z,8.40
2023-10-07T14:19:02.674Z,8.40
2023-10-07T14:21:32.255Z,9.20
2023-10-07T14:24:04.659Z,15.27
2023-10-07T14:26:36.076Z,20.67
2023-10-07T14:29:07.106Z,12.10
2023-10-07T14:31:35.828Z,8.97
2023-10-07T14:34:04.617Z,20.77
2023-10-07T14:36:31.427Z,9.07
2023-10-07T14:38:58.204Z,9.80
2023-10-07T14:41:27.778Z,9.43
2023-10-07T14:43:54.643Z,18.37
2023-10-07T14:46:23.328Z,8.43
2023-10-07T14:48:50.375Z,7.60
2023-10-07T14:51:20.046Z,15.03
2023-10-07T14:53:47.948Z,9.90
2023-10-07T14:56:26.816Z,13.43
2023-10-07T14:58:53.801Z,11.13
2023-10-07T15:01:24.082Z,10.30
2023-10-07T15:03:52.765Z,11.93
2023-10-07T15:06:22.811Z,14.87
2023-10-07T15:08:52.998Z,10.93
2023-10-07T15:11:22.277Z,12.87
2023-10-07T15:13:53.102Z,10.60
2023-10-07T15:16:22.233Z,9.20
2023-10-07T15:18:56.909Z,9.23
2023-10-07T15:21:25.244Z,10.50
2023-10-07T15:23:52.244Z,9.67
2023-10-07T15:26:19.662Z,10.90
2023-10-07T15:28:49.055Z,9.23
2023-10-07T15:31:23.769Z,11.07
2023-10-07T15:33:58.895Z,7.80
2023-10-07T15:36:26.495Z,8.37
2023-10-07T15:38:53.805Z,11.50
2023-10-07T15:41:21.383Z,14.83
2023-10-07T15:43:48.549Z,9.73
2023-10-07T15:46:17.657Z,13.57
2023-10-07T15:48:44.880Z,9.00
2023-10-07T15:51:12.311Z,9.23
2023-10-07T15:53:39.258Z,13.47
2023-10-07T15:56:11.145Z,12.77
2023-10-07T15:58:38.765Z,9.63
2023-10-07T16:01:10.615Z,9.10
2023-10-07T16:03:40.576Z,11.33
2023-10-07T16:06:08.746Z,12.83
2023-10-07T16:08:40.394Z,13.43
2023-10-07T16:11:09.477Z,8.83
2023-10-07T16:13:36.841Z,18.60
2023-10-07T16:16:06.620Z,9.37
2023-10-07T16:18:41.271Z,13.27
2023-10-07T16:21:12.754Z,11.07
2023-10-07T16:23:44.589Z,7.93
2023-10-07T16:26:16.059Z,9.87
2023-10-07T16:28:47.469Z,14.17
2023-10-07T16:31:14.515Z,9.63
2023-10-07T16:33:42.401Z,11.20
2023-10-07T16:36:09.440Z,11.70
2023-10-07T16:38:38.925Z,13.73
2023-10-07T16:41:07.814Z,13.40
2023-10-07T16:43:37.275Z,9.67
2023-10-07T16:46:06.879Z,21.13
2023-10-07T16:48:36.036Z,16.30
2023-10-07T16:51:08.474Z,15.40
2023-10-07T16:53:38.327Z,12.43
2023-10-07T16:56:10.285Z,20.17
2023-10-07T16:58:37.294Z,22.50
2023-10-07T17:01:07.868Z,10.10
2023-10-07T17:03:35.291Z,11.80
2023-10-07T17:06:05.074Z,13.07
2023-10-07T17:08:32.900Z,14.10
2023-10-07T17:11:01.473Z,18.93
2023-10-07T17:13:29.244Z,17.30
2023-10-07T17:16:00.639Z,9.67
2023-10-07T17:18:28.634Z,11.70
2023-10-07T17:21:00.299Z,16.27
2023-10-07T17:23:28.422Z,14.43
2023-10-07T17:25:56.255Z,9.53
2023-10-07T17:28:23.801Z,11.93
2023-10-07T17:30:51.238Z,13.50
2023-10-07T17:33:22.375Z,16.47
2023-10-07T17:35:49.859Z,18.53
2023-10-07T17:38:19.157Z,9.80
2023-10-07T17:40:49.495Z,15.47
2023-10-07T17:43:17.191Z,14.50
2023-10-07T17:45:45.175Z,16.37
2023-10-07T17:48:12.767Z,16.63
2023-10-07T17:50:41.452Z,10.90
2023-10-07T17:53:10.809Z,15.63
2023-10-07T17:55:37.919Z,11.07
2023-10-07T17:58:05.776Z,11.93
2023-10-07T18:00:32.806Z,8.70
2023-10-07T18:03:00.863Z,14.43
2023-10-07T18:05:28.699Z,11.03
2023-10-07T18:07:56.771Z,8.73
2023-10-07T18:10:26.188Z,9.93
2023-10-07T18:12:53.758Z,10.30
2023-10-07T18:15:21.450Z,11.60
2023-10-07T18:17:49.895Z,9.57
2023-10-07T18:20:17.472Z,12.63
2023-10-07T18:22:50.965Z,19.10
2023-10-07T18:25:22.918Z,15.23
2023-10-07T18:27:54.420Z,12.53
2023-10-07T18:30:22.775Z,12.67
2023-10-07T18:32:50.167Z,16.40
2023-10-07T18:35:17.328Z,9.00
2023-10-07T18:37:44.660Z,14.17
2023-10-07T18:40:12.963Z,13.40
2023-10-07T18:42:40.713Z,14.43
2023-10-07T18:45:12.214Z,14.43
2023-10-07T18:47:39.964Z,16.47
2023-10-07T18:50:09.095Z,9.50
2023-10-07T18:52:36.218Z,10.90
2023-10-07T18:55:03.883Z,11.43
2023-10-07T18:57:31.729Z,18.03
2023-10-07T19:00:01.898Z,13.60
2023-10-07T19:02:30.125Z,11.47
2023-10-07T19:04:57.875Z,10.00
2023-10-07T19:07:25.593Z,10.93
2023-10-07T19:09:54.787Z,8.60
2023-10-07T19:12:24.017Z,15.27
2023-10-07T19:14:54.716Z,11.20
2023-10-07T19:17:24.686Z,16.30
2023-10-07T19:19:52.326Z,11.63
2023-10-07T19:22:20.090Z,11.00
2023-10-07T19:24:50.131Z,14.57
2023-10-07T19:27:18.910Z,13.77
2023-10-07T19:29:46.707Z,10.37
2023-10-07T19:32:16.630Z,11.23
2023-10-07T19:34:46.450Z,10.60
2023-10-07T19:37:16.377Z,10.30
2023-10-07T19:39:44.900Z,8.50
2023-10-07T19:42:12.939Z,15.73
2023-10-07T19:44:39.906Z,9.87
2023-10-07T19:47:07.788Z,15.57
2023-10-07T19:49:38.274Z,14.57
2023-10-07T19:52:07.391Z,10.73
2023-10-07T19:54:34.463Z,8.70
2023-10-07T19:57:01.280Z,11.90
2023-10-07T19:59:28.206Z,11.17
2023-10-07T20:01:55.061Z,15.43
2023-10-07T20:04:22.019Z,11.70
2023-10-07T20:06:48.860Z,12.83
2023-10-07T20:09:19.330Z,15.20
2023-10-07T20:11:48.772Z,11.47
2023-10-07T20:14:16.269Z,10.83
2023-10-07T20:16:44.221Z,16.23
2023-10-07T20:19:12.404Z,8.50
2023-10-07T20:21:39.685Z,10.60
2023-10-07T20:24:06.900Z,9.90
2023-10-07T20:26:33.997Z,13.00
2023-10-07T20:29:01.561Z,8.67
2023-10-07T20:31:28.440Z,10.00
2023-10-07T20:33:55.249Z,16.07
2023-10-07T20:36:23.891Z,10.07
2023-10-07T20:38:52.593Z,13.57
2023-10-07T20:41:20.710Z,10.27
2023-10-07T20:43:47.624Z,10.10
2023-10-07T20:46:14.478Z,11.67
2023-10-07T20:48:41.526Z,13.60
2023-10-07T20:51:11.209Z,9.10
2023-10-07T20:53:40.809Z,8.50
2023-10-07T20:56:09.555Z,15.33
2023-10-07T20:58:36.865Z,11.97
2023-10-07T21:01:07.172Z,15.20
2023-10-07T21:03:34.666Z,12.90
2023-10-07T21:06:04.499Z,11.63
2023-10-07T21:08:31.795Z,13.13
2023-10-07T21:10:59.966Z,10.80
2023-10-07T21:13:26.896Z,19.60
2023-10-07T21:15:57.136Z,17.33
2023-10-07T21:18:25.824Z,14.73
2023-10-07T21:20:52.676Z,6.90
2023-10-07T21:23:19.586Z,11.20
2023-10-07T21:25:48.923Z,18.30
2023-10-07T21:28:17.042Z,13.93
2023-10-07T21:30:47.506Z,9.60
2023-10-07T21:33:15.896Z,12.10
2023-10-07T21:35:43.804Z,8.37
2023-10-07T21:38:13.219Z,10.70
2023-10-07T21:40:42.067Z,10.70
2023-10-07T21:43:10.033Z,9.37
2023-10-07T21:45:38.275Z,11.33
2023-10-07T21:48:10.381Z,9.20
2023-10-07T21:50:38.550Z,17.43
2023-10-07T21:53:06.114Z,9.40
2023-10-07T21:55:34.560Z,12.33
2023-10-07T21:58:02.996Z,14.50
2023-10-07T22:00:30.832Z,14.13
2023-10-07T22:03:00.970Z,11.63
2023-10-07T22:05:31.815Z,11.27
2023-10-07T22:08:00.346Z,13.93
2023-10-07T22:10:35.384Z,14.03
2023-10-07T22:13:14.612Z,10.80
2023-10-07T22:15:52.135Z,8.20
2023-10-07T22:18:20.874Z,13.27
2023-10-07T22:20:50.694Z,9.27
2023-10-07T22:23:20.870Z,18.60
2023-10-07T22:25:48.173Z,13.07
2023-10-07T22:28:16.786Z,12.47
2023-10-07T22:30:50.819Z,15.83
2023-10-07T22:33:21.542Z,9.03
2023-10-07T22:35:49.232Z,23.40
2023-10-07T22:38:20.880Z,10.17
2023-10-07T22:40:50.999Z,8.97
2023-10-07T22:43:19.119Z,12.23
2023-10-07T22:45:52.333Z,19.20
2023-10-07T22:48:22.080Z,13.50
2023-10-07T22:50:55.868Z,21.43
2023-10-07T22:53:30.802Z,11.73
2023-10-07T22:56:05.607Z,13.90
2023-10-07T22:58:39.848Z,25.60
2023-10-07T23:01:17.246Z,15.13
2023-10-07T23:03:58.596Z,13.87
2023-10-07T23:06:40.768Z,14.07
2023-10-07T23:09:08.460Z,19.40
2023-10-07T23:11:45.654Z,17.60
2023-10-07T23:14:19.333Z,13.50
2023-10-07T23:16:53.914Z,14.53
2023-10-07T23:19:25.265Z,10.57
2023-10-07T23:21:55.554Z,14.37
2023-10-07T23:24:36.692Z,13.27
2023-10-07T23:27:05.778Z,10.37
2023-10-07T23:29:45.588Z,11.43
2023-10-07T23:32:24.899Z,8.33
2023-10-07T23:35:20.976Z,9.10
2023-10-07T23:38:09.128Z,15.17
2023-10-07T23:40:36.741Z,10.03
2023-10-07T23:43:10.759Z,10.83
2023-10-07T23:45:41.416Z,12.40
2023-10-07T23:48:19.949Z,11.53
2023-10-07T23:50:49.939Z,13.17
2023-10-07T23:53:23.453Z,9.60
2023-10-07T23:56:05.328Z,9.80
2023-10-07T23:58:44.378Z,10.33
